Time;durP1;ratioP1;P1;durP2;ratioP2;P2;SDS_P1;SDS_P2;PMS_P1;PMS_P2;Temp;Humidity;BMP_temperature;BMP_pressure;BME280_temperature;BME280_humidity;BME280_pressure;Samples;Min_cycle;Max_cycle;Signal;HPM_P1;HPM_P2
2022/09/10 00:01:13;;;;;;;1.85;0.85;;;15.90;92.90;;;;;;5064741;28;20044;-79
2022/09/10 00:03:42;;;;;;;1.85;0.82;;;15.90;92.80;;;;;;5055736;28;20127;-80
2022/09/10 00:06:10;;;;;;;5.65;0.90;;;15.90;92.80;;;;;;5058218;28;20120;-80
2022/09/10 00:08:38;;;;;;;1.85;0.80;;;15.90;92.80;;;;;;5041546;28;20435;-80
2022/09/10 00:11:09;;;;;;;3.05;0.85;;;15.90;92.80;;;;;;5022166;28;20037;-80
2022/09/10 00:13:39;;;;;;;2.53;1.20;;;15.90;92.80;;;;;;5037429;28;20071;-80
2022/09/10 00:16:09;;;;;;;2.65;0.95;;;15.90;92.80;;;;;;5054545;28;20063;-80
2022/09/10 00:18:38;;;;;;;4.80;1.02;;;16.00;92.80;;;;;;5074738;28;20036;-79
2022/09/10 00:21:09;;;;;;;2.65;1.13;;;16.00;92.80;;;;;;5061694;28;20048;-79
2022/09/10 00:23:36;;;;;;;2.97;1.02;;;16.00;92.80;;;;;;5059670;28;20045;-80
2022/09/10 00:26:37;;;;;;;2.25;0.90;;;16.00;92.70;;;;;;5027876;28;20459;-80
2022/09/10 00:29:06;;;;;;;1.85;0.75;;;16.10;92.70;;;;;;5029017;28;20047;-79
2022/09/10 00:31:34;;;;;;;3.53;1.10;;;16.10;92.70;;;;;;5073337;28;20115;-80
2022/09/10 00:34:03;;;;;;;2.60;1.08;;;16.10;92.70;;;;;;5052094;28;20144;-79
2022/09/10 00:36:34;;;;;;;5.68;1.38;;;16.10;92.70;;;;;;5051397;28;20151;-79
2022/09/10 00:39:05;;;;;;;2.90;1.23;;;16.10;92.70;;;;;;5039320;28;20053;-81
2022/09/10 00:41:33;;;;;;;3.05;1.00;;;16.10;92.70;;;;;;5042790;28;20109;-80
2022/09/10 00:44:04;;;;;;;3.33;1.20;;;16.10;92.70;;;;;;5057913;28;20399;-80
2022/09/10 00:46:45;;;;;;;3.33;1.42;;;16.10;92.70;;;;;;5063206;28;20143;-80
2022/09/10 00:49:24;;;;;;;3.70;1.30;;;16.10;92.70;;;;;;5064313;28;20122;-80
2022/09/10 00:51:52;;;;;;;3.22;1.35;;;16.10;92.70;;;;;;5058236;28;20550;-80
2022/09/10 00:54:23;;;;;;;3.40;1.70;;;16.10;92.70;;;;;;5061468;28;20036;-80
2022/09/10 00:56:54;;;;;;;3.83;1.80;;;16.20;92.70;;;;;;5057037;28;20239;-79
2022/09/10 00:59:24;;;;;;;6.35;1.77;;;16.20;92.70;;;;;;5073707;28;20064;-81
2022/09/10 01:01:52;;;;;;;3.40;1.83;;;16.20;92.70;;;;;;5042488;28;20110;-80
2022/09/10 01:04:19;;;;;;;3.28;1.52;;;16.20;92.70;;;;;;5056280;28;20698;-80
2022/09/10 01:06:50;;;;;;;4.03;1.95;;;16.20;92.70;;;;;;5040000;28;20040;-80
2022/09/10 01:09:20;;;;;;;4.93;1.98;;;16.20;92.60;;;;;;5060837;28;20037;-80
2022/09/10 01:12:02;;;;;;;4.93;2.03;;;16.20;92.60;;;;;;5063435;28;20047;-80
2022/09/10 01:14:45;;;;;;;4.95;2.35;;;16.30;92.60;;;;;;5060923;28;20044;-80
2022/09/10 01:17:32;;;;;;;5.50;2.53;;;16.30;92.60;;;;;;5050427;28;20072;-83
2022/09/10 01:20:22;;;;;;;4.03;2.28;;;16.30;92.60;;;;;;5052923;28;20496;-82
2022/09/10 01:23:03;;;;;;;5.20;2.45;;;16.30;92.70;;;;;;5073192;28;20056;-82
2022/09/10 01:25:52;;;;;;;6.88;2.92;;;16.30;92.60;;;;;;5054365;28;20579;-83
2022/09/10 01:28:42;;;;;;;6.70;2.72;;;16.30;92.60;;;;;;5058801;28;20044;-83
2022/09/10 01:31:18;;;;;;;5.72;2.70;;;16.30;92.60;;;;;;5056676;28;20029;-83
2022/09/10 01:33:58;;;;;;;6.15;3.22;;;16.30;92.60;;;;;;5056454;28;20046;-83
2022/09/10 01:36:30;;;;;;;6.43;3.17;;;16.30;92.60;;;;;;5040455;28;20040;-83
2022/09/10 01:38:57;;;;;;;6.35;3.50;;;16.30;92.60;;;;;;5067664;28;20046;-83
2022/09/10 01:41:27;;;;;;;6.50;3.83;;;16.30;92.60;;;;;;5024719;28;20059;-80
2022/09/10 01:43:54;;;;;;;5.07;3.38;;;16.30;92.60;;;;;;5058559;28;20086;-83
2022/09/10 01:46:23;;;;;;;5.35;3.53;;;16.30;92.60;;;;;;5044155;28;20056;-83
2022/09/10 01:49:35;;;;;;;7.22;3.85;;;16.30;92.60;;;;;;5049105;28;20048;-83
2022/09/10 01:52:16;;;;;;;6.65;3.35;;;16.30;92.50;;;;;;5067271;28;20040;-83
2022/09/10 01:55:06;;;;;;;6.00;3.38;;;16.30;92.60;;;;;;5066954;28;20044;-82
2022/09/10 01:57:58;;;;;;;5.95;4.15;;;16.40;92.60;;;;;;5066472;28;20045;-83
2022/09/10 02:00:39;;;;;;;5.65;3.25;;;16.30;92.50;;;;;;5065629;28;20041;-83
2022/09/10 02:03:14;;;;;;;7.45;3.90;;;16.30;92.60;;;;;;5069346;28;20036;-83
2022/09/10 02:05:46;;;;;;;5.82;3.90;;;16.30;92.60;;;;;;5063822;28;20113;-83
2022/09/10 02:08:22;;;;;;;7.10;3.72;;;16.30;92.60;;;;;;5057228;28;20063;-83
2022/09/10 02:10:58;;;;;;;6.30;4.13;;;16.30;92.60;;;;;;5063951;28;20039;-82
2022/09/10 02:13:30;;;;;;;6.40;3.70;;;16.30;92.60;;;;;;5048905;28;20040;-82
2022/09/10 02:16:36;;;;;;;7.50;3.83;;;16.30;92.60;;;;;;5064282;28;20082;-83
2022/09/10 02:19:04;;;;;;;7.00;3.28;;;16.30;92.70;;;;;;5046752;28;20047;-83
2022/09/10 02:21:32;;;;;;;7.90;4.35;;;16.30;92.60;;;;;;5067913;28;20507;-83
2022/09/10 02:24:08;;;;;;;5.95;3.90;;;16.30;92.60;;;;;;5072316;28;20056;-83
2022/09/10 02:26:38;;;;;;;6.43;3.92;;;16.30;92.60;;;;;;5069597;28;20405;-83
2022/09/10 02:29:07;;;;;;;7.38;3.95;;;16.20;92.60;;;;;;5072176;28;20050;-83
2022/09/10 02:31:36;;;;;;;5.07;2.92;;;16.30;92.60;;;;;;5038109;28;20037;-83
2022/09/10 02:34:03;;;;;;;7.00;4.20;;;16.30;92.60;;;;;;5034400;28;20484;-82
2022/09/10 02:36:31;;;;;;;5.70;3.80;;;16.30;92.60;;;;;;5038544;28;20059;-82
2022/09/10 02:38:59;;;;;;;5.57;3.72;;;16.30;92.70;;;;;;5056186;28;20044;-82
2022/09/10 02:41:32;;;;;;;9.88;4.50;;;16.30;92.70;;;;;;5055433;28;20040;-82
2022/09/10 02:44:02;;;;;;;6.90;4.18;;;16.30;92.70;;;;;;5066019;28;20131;-82
2022/09/10 02:46:29;;;;;;;8.73;4.72;;;16.30;92.70;;;;;;5055838;28;20052;-82
2022/09/10 02:48:57;;;;;;;8.05;4.13;;;16.40;92.70;;;;;;5048219;28;20047;-82
2022/09/10 02:51:25;;;;;;;6.43;4.28;;;16.40;92.70;;;;;;5041660;28;20043;-82
2022/09/10 02:53:52;;;;;;;5.75;3.75;;;16.40;92.70;;;;;;5039229;28;20047;-82
2022/09/10 02:56:19;;;;;;;8.95;3.78;;;16.40;92.70;;;;;;5028383;28;20082;-82
2022/09/10 02:58:46;;;;;;;6.50;4.15;;;16.40;92.70;;;;;;5054253;28;20036;-81
2022/09/10 03:01:19;;;;;;;5.97;3.55;;;16.40;92.70;;;;;;5056840;28;20048;-81
2022/09/10 03:03:59;;;;;;;8.55;4.13;;;16.40;92.70;;;;;;5056690;28;20039;-82
2022/09/10 03:06:27;;;;;;;6.78;3.78;;;16.40;92.70;;;;;;5041964;28;20040;-82
2022/09/10 03:08:54;;;;;;;6.47;3.60;;;16.40;92.70;;;;;;5064031;28;20072;-82
2022/09/10 03:11:26;;;;;;;5.60;3.95;;;16.40;92.70;;;;;;5054386;28;20522;-82
2022/09/10 03:13:54;;;;;;;7.15;4.43;;;16.40;92.80;;;;;;5038561;28;20052;-81
2022/09/10 03:16:23;;;;;;;7.70;4.07;;;16.40;92.70;;;;;;5041461;28;20432;-82
2022/09/10 03:18:51;;;;;;;6.55;4.00;;;16.40;92.70;;;;;;5055028;28;20072;-79
2022/09/10 03:21:20;;;;;;;5.38;3.88;;;16.40;92.80;;;;;;5063223;28;20052;-79
2022/09/10 03:23:49;;;;;;;6.88;4.53;;;16.40;92.70;;;;;;5048845;28;20048;-80
2022/09/10 03:26:24;;;;;;;7.78;4.85;;;16.40;92.80;;;;;;5048627;28;20044;-81
2022/09/10 03:28:52;;;;;;;5.97;4.05;;;16.40;92.70;;;;;;5022679;28;20079;-82
2022/09/10 03:31:21;;;;;;;9.02;4.57;;;16.40;92.80;;;;;;5040865;28;20066;-82
2022/09/10 03:33:49;;;;;;;7.72;4.50;;;16.40;92.80;;;;;;5044527;28;20488;-82
2022/09/10 03:36:17;;;;;;;7.38;4.50;;;16.40;92.80;;;;;;5026799;28;20064;-82
2022/09/10 03:38:48;;;;;;;8.23;4.57;;;16.40;92.80;;;;;;5038966;28;20045;-82
2022/09/10 03:41:15;;;;;;;6.80;3.97;;;16.40;92.80;;;;;;5055818;28;20044;-82
2022/09/10 03:43:42;;;;;;;5.78;4.05;;;16.40;92.80;;;;;;5034158;28;20126;-82
2022/09/10 03:46:10;;;;;;;7.13;4.45;;;16.40;92.80;;;;;;5016107;28;20557;-82
2022/09/10 03:48:42;;;;;;;7.70;4.47;;;16.40;93.10;;;;;;5040284;28;20055;-79
2022/09/10 03:51:10;;;;;;;6.82;4.63;;;16.40;92.80;;;;;;5054835;28;20051;-80
2022/09/10 03:53:38;;;;;;;6.15;3.72;;;16.40;92.80;;;;;;5040010;28;20032;-79
2022/09/10 03:56:07;;;;;;;6.65;4.32;;;16.40;92.80;;;;;;5028473;28;20060;-79
2022/09/10 03:58:34;;;;;;;7.00;3.97;;;16.40;92.80;;;;;;5033449;28;20043;-80
2022/09/10 04:01:05;;;;;;;6.03;4.18;;;16.40;92.80;;;;;;5024651;28;20469;-80
2022/09/10 04:03:36;;;;;;;8.60;4.60;;;16.40;92.80;;;;;;5037827;28;20152;-79
2022/09/10 04:06:03;;;;;;;6.80;4.50;;;16.40;92.80;;;;;;5035540;28;20721;-80
2022/09/10 04:08:30;;;;;;;7.85;3.95;;;16.40;93.10;;;;;;5035234;28;20044;-80
2022/09/10 04:11:01;;;;;;;6.57;3.92;;;16.40;92.90;;;;;;5004793;28;20045;-79
2022/09/10 04:13:30;;;;;;;6.07;4.07;;;16.40;92.90;;;;;;5054282;28;20037;-79
2022/09/10 04:16:01;;;;;;;7.05;5.00;;;16.40;92.90;;;;;;5067919;28;20144;-80
2022/09/10 04:18:32;;;;;;;7.75;4.70;;;16.40;92.90;;;;;;5032389;28;20041;-80
2022/09/10 04:20:59;;;;;;;6.15;3.92;;;16.40;92.90;;;;;;5041048;28;20047;-79
2022/09/10 04:23:28;;;;;;;6.97;3.90;;;16.40;92.90;;;;;;5041673;28;20139;-79
2022/09/10 04:25:55;;;;;;;6.60;4.22;;;16.40;92.90;;;;;;5044704;28;20036;-80
2022/09/10 04:28:23;;;;;;;7.28;4.20;;;16.50;92.90;;;;;;5047714;28;20516;-79
2022/09/10 04:30:51;;;;;;;6.80;4.25;;;16.50;92.90;;;;;;5037762;28;20063;-80
2022/09/10 04:33:21;;;;;;;6.07;4.07;;;16.50;92.90;;;;;;5041729;28;20131;-79
2022/09/10 04:35:48;;;;;;;6.20;4.03;;;16.50;92.90;;;;;;5046114;28;20067;-80
2022/09/10 04:38:15;;;;;;;6.35;4.22;;;16.50;92.90;;;;;;5032611;28;20063;-79
2022/09/10 04:40:46;;;;;;;6.63;4.20;;;16.50;92.90;;;;;;5041616;28;20041;-79
2022/09/10 04:43:14;;;;;;;7.63;4.03;;;16.50;92.90;;;;;;5040028;28;20070;-79
2022/09/10 04:45:42;;;;;;;6.78;3.90;;;16.50;92.90;;;;;;5045863;28;20512;-80
2022/09/10 04:48:10;;;;;;;6.05;4.43;;;16.50;92.90;;;;;;5055496;28;20045;-79
2022/09/10 04:50:40;;;;;;;6.55;3.88;;;16.50;92.90;;;;;;5034697;28;20067;-80
2022/09/10 04:53:30;;;;;;;5.93;4.07;;;16.50;92.90;;;;;;5049285;28;20040;-79
2022/09/10 04:55:57;;;;;;;5.22;3.33;;;16.50;93.00;;;;;;5049937;28;20051;-79
2022/09/10 04:58:25;;;;;;;5.53;3.67;;;16.50;92.90;;;;;;5049784;28;20044;-79
2022/09/10 05:00:52;;;;;;;5.60;3.83;;;16.50;92.90;;;;;;5060022;28;20043;-79
2022/09/10 05:03:19;;;;;;;5.10;3.20;;;16.60;93.00;;;;;;5046827;28;20097;-80
2022/09/10 05:05:47;;;;;;;5.43;3.58;;;16.60;93.00;;;;;;5014905;28;20549;-79
2022/09/10 05:08:14;;;;;;;6.50;3.72;;;16.60;93.00;;;;;;5039330;28;20472;-79
2022/09/10 05:10:49;;;;;;;5.80;3.03;;;16.60;93.00;;;;;;5016555;28;20048;-79
2022/09/10 05:13:16;;;;;;;6.35;3.83;;;16.60;93.00;;;;;;5035631;28;20044;-81
2022/09/10 05:15:44;;;;;;;4.95;3.20;;;16.60;92.90;;;;;;5045280;28;20511;-79
2022/09/10 05:18:13;;;;;;;5.88;3.10;;;16.70;93.00;;;;;;5046208;28;20055;-80
2022/09/10 05:20:42;;;;;;;5.50;3.88;;;16.70;93.00;;;;;;5062617;28;20550;-81
2022/09/10 05:23:10;;;;;;;6.60;3.25;;;16.70;93.00;;;;;;5056966;28;20047;-82
2022/09/10 05:25:38;;;;;;;5.15;3.30;;;16.70;93.00;;;;;;5046586;28;20066;-83
2022/09/10 05:28:05;;;;;;;5.93;3.75;;;16.70;93.00;;;;;;5070275;28;20054;-83
2022/09/10 05:30:33;;;;;;;6.63;3.53;;;16.70;93.00;;;;;;5052014;28;20399;-82
2022/09/10 05:33:01;;;;;;;5.75;3.55;;;16.70;93.00;;;;;;5045987;28;20166;-83
2022/09/10 05:35:32;;;;;;;5.65;3.78;;;16.70;93.00;;;;;;5068627;28;20044;-83
2022/09/10 05:38:02;;;;;;;5.82;3.88;;;16.70;93.00;;;;;;5041217;28;20083;-83
2022/09/10 05:40:34;;;;;;;5.90;3.35;;;16.70;93.00;;;;;;5042255;28;20044;-83
2022/09/10 05:43:02;;;;;;;4.72;3.25;;;16.70;93.00;;;;;;5055944;28;20131;-83
2022/09/10 05:45:29;;;;;;;5.88;3.35;;;16.80;93.00;;;;;;5040070;28;20138;-83
2022/09/10 05:47:57;;;;;;;5.43;3.60;;;16.80;93.00;;;;;;5032200;28;20131;-82
2022/09/10 05:50:24;;;;;;;4.63;2.72;;;16.80;92.90;;;;;;5039221;28;20063;-83
2022/09/10 05:52:52;;;;;;;4.93;3.42;;;16.80;92.90;;;;;;5027097;28;20574;-83
2022/09/10 05:55:19;;;;;;;6.00;3.20;;;16.80;92.90;;;;;;5038695;28;20733;-84
2022/09/10 05:57:47;;;;;;;4.97;3.40;;;16.90;92.90;;;;;;5040114;28;20037;-82
2022/09/10 06:00:17;;;;;;;7.07;3.97;;;16.90;92.80;;;;;;5050844;28;20453;-81
2022/09/10 06:02:53;;;;;;;6.55;3.63;;;16.90;92.90;;;;;;5038769;28;20050;-82
2022/09/10 06:05:28;;;;;;;5.32;3.50;;;16.80;92.90;;;;;;5041580;28;20055;-82
2022/09/10 06:07:55;;;;;;;6.55;3.50;;;16.80;92.90;;;;;;5058459;28;20049;-81
2022/09/10 06:10:23;;;;;;;6.00;3.72;;;16.70;93.00;;;;;;5026002;28;20563;-80
2022/09/10 06:12:51;;;;;;;6.78;3.60;;;16.70;93.10;;;;;;5042130;28;20036;-80
2022/09/10 06:15:20;;;;;;;5.30;3.13;;;16.70;93.10;;;;;;5059521;28;20431;-80
2022/09/10 06:17:48;;;;;;;5.43;3.97;;;16.70;93.20;;;;;;5039375;28;20136;-80
2022/09/10 06:20:16;;;;;;;7.03;4.70;;;16.70;93.20;;;;;;5039514;28;20047;-79
2022/09/10 06:22:45;;;;;;;8.75;5.30;;;16.60;93.20;;;;;;5071272;28;20076;-80
2022/09/10 06:25:12;;;;;;;8.70;4.32;;;16.60;93.30;;;;;;5076078;28;20043;-81
2022/09/10 06:27:40;;;;;;;6.43;3.80;;;16.60;93.30;;;;;;5045528;28;20048;-81
2022/09/10 06:30:07;;;;;;;6.20;3.92;;;16.60;93.70;;;;;;5059435;28;20362;-79
2022/09/10 06:32:38;;;;;;;5.50;3.47;;;16.50;93.40;;;;;;5029483;28;20041;-78
2022/09/10 06:35:08;;;;;;;6.65;3.95;;;16.50;93.50;;;;;;5055979;28;20037;-79
2022/09/10 06:37:36;;;;;;;4.85;3.35;;;16.40;93.50;;;;;;5062375;28;20044;-78
2022/09/10 06:40:06;;;;;;;5.75;3.50;;;16.40;93.50;;;;;;5023442;28;20539;-78
2022/09/10 06:42:33;;;;;;;4.47;2.88;;;16.40;93.60;;;;;;5043931;28;20550;-78
2022/09/10 06:45:20;;;;;;;3.90;2.70;;;16.40;93.60;;;;;;5046353;28;20058;-78
2022/09/10 06:48:12;;;;;;;5.88;3.38;;;16.40;93.60;;;;;;5037167;28;20052;-79
2022/09/10 06:51:03;;;;;;;5.38;3.58;;;16.30;93.60;;;;;;5062793;28;20036;-78
2022/09/10 06:53:35;;;;;;;4.95;3.38;;;16.30;93.70;;;;;;5027638;28;20054;-77
2022/09/10 06:56:05;;;;;;;8.05;4.60;;;16.30;93.70;;;;;;5071772;28;20037;-77
2022/09/10 06:58:37;;;;;;;8.35;5.55;;;16.20;93.70;;;;;;5055395;28;20131;-78
2022/09/10 07:01:14;;;;;;;11.40;5.95;;;16.20;93.80;;;;;;5067083;28;20042;-81
2022/09/10 07:03:46;;;;;;;8.18;4.30;;;16.10;93.80;;;;;;5070220;28;20048;-81
2022/09/10 07:06:16;;;;;;;8.88;5.00;;;16.10;93.90;;;;;;5044361;28;20477;-80
2022/09/10 07:08:46;;;;;;;6.43;4.40;;;16.10;93.90;;;;;;5045936;28;20042;-80
2022/09/10 07:11:14;;;;;;;9.18;5.30;;;16.10;93.90;;;;;;5050181;28;20086;-82
2022/09/10 07:13:43;;;;;;;7.35;5.10;;;16.10;93.90;;;;;;5060708;28;20064;-83
2022/09/10 07:16:10;;;;;;;7.55;4.47;;;16.10;94.00;;;;;;5046085;28;20078;-84
2022/09/10 07:18:37;;;;;;;6.65;4.18;;;16.10;94.00;;;;;;5049580;28;20105;-87
2022/09/10 07:21:10;;;;;;;8.43;4.72;;;16.20;94.00;;;;;;5041944;28;20044;-83
2022/09/10 07:23:42;;;;;;;6.13;3.08;;;16.20;94.00;;;;;;5067185;28;20451;-82
2022/09/10 07:26:14;;;;;;;6.30;4.28;;;16.20;94.00;;;;;;5043186;28;20416;-81
2022/09/10 07:28:45;;;;;;;7.03;4.28;;;16.20;94.00;;;;;;5051696;28;20056;-81
2022/09/10 07:31:19;;;;;;;5.68;3.97;;;16.30;94.00;;;;;;5042876;28;20048;-76
2022/09/10 07:33:48;;;;;;;6.45;4.30;;;16.30;94.10;;;;;;5055674;28;20094;-79
2022/09/10 07:36:16;;;;;;;6.15;3.55;;;16.30;94.10;;;;;;5040958;28;20492;-82
2022/09/10 07:38:45;;;;;;;6.22;4.07;;;16.30;94.10;;;;;;5039098;28;20051;-85
2022/09/10 07:41:14;;;;;;;7.03;4.07;;;16.30;94.00;;;;;;5056893;28;20044;-82
2022/09/10 07:43:42;;;;;;;6.35;4.45;;;16.30;94.00;;;;;;5058657;28;20423;-82
2022/09/10 07:46:16;;;;;;;6.15;4.15;;;16.40;94.10;;;;;;5054021;28;20052;-82
2022/09/10 07:48:44;;;;;;;8.85;4.78;;;16.40;94.10;;;;;;5064940;28;20053;-82
2022/09/10 07:51:10;;;;;;;8.07;5.30;;;16.40;94.10;;;;;;5055401;28;20073;-81
2022/09/10 07:53:38;;;;;;;8.52;4.70;;;16.40;94.10;;;;;;5050438;28;20433;-84
2022/09/10 07:56:16;;;;;;;8.98;5.00;;;16.40;94.10;;;;;;5050351;28;20110;-83
2022/09/10 07:58:43;;;;;;;7.55;5.18;;;16.40;94.10;;;;;;5031227;28;20449;-82
2022/09/10 08:01:12;;;;;;;7.30;4.50;;;16.40;94.10;;;;;;5017135;28;20070;-82
2022/09/10 08:03:39;;;;;;;8.13;5.07;;;16.40;94.10;;;;;;5039966;28;20050;-82
2022/09/10 08:06:09;;;;;;;7.20;4.32;;;16.50;94.10;;;;;;5028718;28;20051;-82
2022/09/10 08:08:39;;;;;;;8.45;4.90;;;16.50;94.10;;;;;;5039222;28;20047;-82
2022/09/10 08:11:12;;;;;;;7.15;4.13;;;16.50;94.10;;;;;;5058091;28;20071;-81
2022/09/10 08:13:46;;;;;;;7.18;4.75;;;16.60;94.20;;;;;;5067885;28;20040;-81
2022/09/10 08:16:22;;;;;;;7.80;4.78;;;16.60;94.10;;;;;;5060873;28;20044;-82
2022/09/10 08:18:56;;;;;;;6.60;4.75;;;16.60;94.10;;;;;;5043055;28;20496;-80
2022/09/10 08:21:25;;;;;;;6.97;4.60;;;16.70;94.10;;;;;;5042214;28;20044;-76
2022/09/10 08:23:53;;;;;;;6.82;4.85;;;16.70;94.10;;;;;;5037811;28;20053;-83
2022/09/10 08:26:23;;;;;;;7.10;4.45;;;16.80;94.10;;;;;;5054105;28;20055;-80
2022/09/10 08:28:52;;;;;;;6.75;4.55;;;16.80;94.10;;;;;;5021186;28;20446;-77
2022/09/10 08:31:20;;;;;;;6.35;4.35;;;16.90;94.10;;;;;;5053371;28;20045;-78
2022/09/10 08:33:55;;;;;;;5.07;3.70;;;16.90;94.10;;;;;;5047395;28;20044;-78
2022/09/10 08:36:25;;;;;;;6.47;4.38;;;16.90;94.10;;;;;;5052024;28;20037;-78
2022/09/10 08:38:53;;;;;;;6.75;4.00;;;17.00;94.10;;;;;;5053668;28;20064;-78
2022/09/10 08:41:37;;;;;;;6.13;4.18;;;17.10;94.00;;;;;;5053482;28;20119;-78
2022/09/10 08:44:34;;;;;;;5.75;3.58;;;17.10;94.00;;;;;;5051097;28;20048;-78
2022/09/10 08:47:36;;;;;;;6.35;4.30;;;17.10;94.00;;;;;;5048399;28;20062;-78
2022/09/10 08:50:29;;;;;;;7.05;4.40;;;17.20;93.90;;;;;;5056969;28;20047;-75
2022/09/10 08:53:34;;;;;;;6.78;4.28;;;17.20;93.80;;;;;;5062980;28;20041;-79
2022/09/10 08:56:07;;;;;;;6.93;4.55;;;17.20;93.90;;;;;;5045864;28;20044;-79
2022/09/10 08:58:45;;;;;;;5.05;3.58;;;17.30;94.00;;;;;;5058740;28;20068;-79
2022/09/10 09:01:29;;;;;;;5.53;3.25;;;17.40;93.90;;;;;;5067061;28;20067;-78
2022/09/10 09:03:57;;;;;;;6.03;4.22;;;17.50;93.90;;;;;;5053147;28;20397;-78
2022/09/10 09:06:45;;;;;;;5.88;4.15;;;17.50;93.80;;;;;;5057072;28;20083;-78
2022/09/10 09:09:13;;;;;;;6.10;4.40;;;17.60;93.80;;;;;;5069699;28;20465;-76
2022/09/10 09:12:01;;;;;;;5.85;3.95;;;17.80;93.70;;;;;;5037460;28;20063;-79
2022/09/10 09:14:53;;;;;;;6.53;4.53;;;18.00;93.60;;;;;;5041048;28;20131;-78
2022/09/10 09:17:54;;;;;;;5.30;4.07;;;18.00;93.50;;;;;;5056941;28;20044;-78
2022/09/10 09:20:32;;;;;;;4.43;2.92;;;18.10;93.50;;;;;;5073935;28;20044;-78
2022/09/10 09:23:21;;;;;;;3.70;2.40;;;18.00;93.50;;;;;;5040881;28;20044;-84
2022/09/10 09:26:02;;;;;;;2.58;1.63;;;18.10;93.40;;;;;;5060890;28;20136;-84
2022/09/10 09:28:47;;;;;;;3.22;1.63;;;18.10;93.40;;;;;;5050864;28;20479;-83
2022/09/10 09:31:23;;;;;;;2.85;1.52;;;18.00;93.50;;;;;;5054073;28;20055;-84
2022/09/10 09:33:59;;;;;;;2.35;1.25;;;17.90;93.60;;;;;;5060343;28;20052;-77
2022/09/10 09:36:33;;;;;;;1.80;1.02;;;17.80;93.60;;;;;;5059186;28;20090;-77
2022/09/10 09:39:04;;;;;;;2.50;1.25;;;17.70;93.70;;;;;;5051207;28;20047;-85
2022/09/10 09:42:21;;;;;;;1.65;1.10;;;17.60;93.80;;;;;;5028407;28;20058;-81
2022/09/10 09:45:16;;;;;;;1.88;1.13;;;17.50;93.80;;;;;;5030188;28;20069;-81
2022/09/10 09:47:48;;;;;;;1.30;0.70;;;17.30;93.90;;;;;;5068006;28;20397;-80
2022/09/10 09:50:19;;;;;;;2.20;1.20;;;17.20;94.00;;;;;;5055552;28;20105;-84
2022/09/10 09:52:46;;;;;;;2.10;1.20;;;17.10;94.00;;;;;;5065725;28;20120;-83
2022/09/10 09:55:33;;;;;;;1.83;0.85;;;17.10;94.10;;;;;;5039464;28;20040;-85
2022/09/10 09:58:19;;;;;;;2.55;1.05;;;17.10;94.10;;;;;;5064274;28;20040;-82
2022/09/10 10:01:04;;;;;;;1.33;0.73;;;17.10;94.20;;;;;;5050498;28;20040;-84
2022/09/10 10:03:51;;;;;;;1.52;0.82;;;17.10;94.20;;;;;;5056525;28;20061;-88
2022/09/10 10:06:44;;;;;;;1.50;0.85;;;17.10;94.10;;;;;;5064241;28;20048;-79
2022/09/10 10:09:22;;;;;;;1.58;0.75;;;17.10;94.10;;;;;;5059561;28;20480;-82
2022/09/10 10:12:03;;;;;;;1.50;0.70;;;17.00;94.10;;;;;;5052312;28;20052;-80
2022/09/10 10:14:57;;;;;;;1.63;0.60;;;17.00;94.20;;;;;;5046644;28;20037;-82
2022/09/10 10:17:32;;;;;;;0.98;0.60;;;17.00;94.20;;;;;;5057718;28;20548;-86
2022/09/10 10:20:13;;;;;;;1.75;0.65;;;16.90;94.30;;;;;;5044251;28;20049;-85
2022/09/10 10:22:42;;;;;;;1.30;0.55;;;17.00;94.30;;;;;;5067102;28;20101;-82
2022/09/10 10:25:33;;;;;;;1.08;0.50;;;17.00;94.30;;;;;;5065841;28;20033;-85
2022/09/10 10:28:00;;;;;;;1.00;0.50;;;17.10;94.10;;;;;;5069921;28;20044;-77
2022/09/10 10:30:30;;;;;;;0.85;0.50;;;17.20;94.10;;;;;;5055636;28;20489;-83
2022/09/10 10:33:01;;;;;;;1.15;0.57;;;17.30;94.00;;;;;;5054043;28;20110;-78
2022/09/10 10:35:50;;;;;;;1.80;0.50;;;17.40;93.90;;;;;;5046537;28;20036;-76
2022/09/10 10:38:30;;;;;;;1.30;0.70;;;17.60;93.80;;;;;;5054947;28;20110;-76
2022/09/10 10:41:22;;;;;;;1.30;0.60;;;17.70;93.80;;;;;;5061582;28;20052;-76
2022/09/10 10:44:13;;;;;;;1.38;0.50;;;17.90;93.70;;;;;;5065112;28;20047;-76
2022/09/10 10:47:14;;;;;;;1.40;0.80;;;18.00;93.60;;;;;;5071114;28;20127;-76
2022/09/10 10:49:44;;;;;;;0.60;0.40;;;18.10;93.50;;;;;;5082297;28;20044;-77
2022/09/10 10:52:50;;;;;;;1.80;0.52;;;18.30;93.20;;;;;;5079963;28;20069;-76
2022/09/10 10:55:34;;;;;;;0.95;0.50;;;18.50;92.90;;;;;;5084398;28;20101;-76
2022/09/10 10:58:15;;;;;;;0.90;0.60;;;18.80;92.70;;;;;;5064236;28;20075;-75
2022/09/10 11:00:48;;;;;;;1.67;0.82;;;18.60;92.80;;;;;;5076775;28;20119;-75
2022/09/10 11:03:26;;;;;;;3.25;1.67;;;18.60;93.10;;;;;;5060622;28;20137;-76
2022/09/10 11:05:59;;;;;;;2.70;1.63;;;18.60;93.30;;;;;;5090950;28;20035;-76
2022/09/10 11:08:32;;;;;;;3.08;2.00;;;18.70;93.40;;;;;;5072196;28;20044;-77
2022/09/10 11:11:23;;;;;;;4.07;2.00;;;18.90;93.40;;;;;;5042694;28;20135;-81
2022/09/10 11:13:55;;;;;;;4.05;2.17;;;19.10;93.10;;;;;;5043335;28;20048;-82
2022/09/10 11:16:28;;;;;;;3.25;1.63;;;19.20;92.90;;;;;;5060221;28;20073;-76
2022/09/10 11:19:02;;;;;;;2.50;1.55;;;19.10;92.90;;;;;;5084607;28;20037;-77
2022/09/10 11:21:37;;;;;;;2.60;1.17;;;18.90;93.00;;;;;;5043299;28;20110;-76
2022/09/10 11:24:38;;;;;;;2.10;1.40;;;18.80;93.10;;;;;;5062476;28;20098;-76
2022/09/10 11:27:09;;;;;;;2.28;1.17;;;18.80;93.20;;;;;;5062955;28;20050;-78
2022/09/10 11:29:48;;;;;;;1.95;1.10;;;18.70;93.20;;;;;;5054334;28;20053;-78
2022/09/10 11:32:38;;;;;;;2.58;1.13;;;18.70;93.20;;;;;;5062311;28;20116;-78
2022/09/10 11:35:28;;;;;;;1.52;0.90;;;18.70;93.00;;;;;;5080060;28;20425;-76
2022/09/10 11:37:59;;;;;;;1.50;0.90;;;18.70;93.00;;;;;;5065150;28;20048;-79
2022/09/10 11:40:40;;;;;;;2.05;1.33;;;18.80;92.90;;;;;;5057978;28;20130;-77
2022/09/10 11:43:16;;;;;;;2.10;1.30;;;19.00;92.70;;;;;;5056212;28;20051;-76
2022/09/10 11:45:51;;;;;;;1.55;0.77;;;19.10;92.50;;;;;;5073617;28;20087;-78
2022/09/10 11:48:43;;;;;;;1.50;1.02;;;19.20;92.50;;;;;;5076973;28;20040;-80
2022/09/10 11:51:25;;;;;;;1.60;0.90;;;19.20;92.50;;;;;;5092317;28;20070;-78
2022/09/10 11:53:53;;;;;;;1.83;1.15;;;19.30;92.40;;;;;;5061849;28;20072;-78
2022/09/10 11:56:33;;;;;;;2.42;1.33;;;19.40;92.50;;;;;;5060515;28;20413;-78
2022/09/10 11:59:25;;;;;;;1.60;1.13;;;19.60;92.30;;;;;;5085980;28;20115;-77
2022/09/10 12:02:19;;;;;;;1.65;0.80;;;19.80;92.10;;;;;;5076528;28;20045;-78
2022/09/10 12:05:18;;;;;;;1.48;0.65;;;20.00;91.80;;;;;;5059525;28;20397;-80
2022/09/10 12:08:09;;;;;;;1.85;1.02;;;20.00;91.60;;;;;;5070387;28;20037;-80
2022/09/10 12:10:55;;;;;;;1.75;1.05;;;19.80;91.60;;;;;;5060623;28;20075;-81
2022/09/10 12:13:22;;;;;;;3.05;1.23;;;19.80;91.90;;;;;;5077949;28;20063;-78
2022/09/10 12:15:56;;;;;;;3.08;1.67;;;19.90;91.80;;;;;;5048954;28;20045;-83
2022/09/10 12:18:41;;;;;;;1.90;1.20;;;19.90;91.80;;;;;;5054098;28;20455;-82
2022/09/10 12:21:23;;;;;;;2.15;0.90;;;19.90;91.70;;;;;;5069290;28;20101;-80
2022/09/10 12:23:51;;;;;;;1.60;1.02;;;19.90;91.60;;;;;;5066513;28;20576;-81
2022/09/10 12:26:19;;;;;;;1.70;0.85;;;19.90;91.70;;;;;;5057273;28;20048;-82
2022/09/10 12:28:58;;;;;;;2.15;0.90;;;19.90;91.60;;;;;;5029629;28;20420;-83
2022/09/10 12:31:26;;;;;;;1.08;0.80;;;19.90;91.50;;;;;;5045766;28;20350;-84
2022/09/10 12:33:53;;;;;;;1.40;1.00;;;20.00;91.60;;;;;;5051532;28;20436;-84
2022/09/10 12:36:26;;;;;;;2.10;1.00;;;20.00;91.50;;;;;;5048302;28;20132;-79
2022/09/10 12:39:15;;;;;;;1.80;1.05;;;20.10;91.40;;;;;;5057907;28;20061;-82
2022/09/10 12:41:42;;;;;;;1.40;0.82;;;20.10;91.40;;;;;;5048906;28;20040;-82
2022/09/10 12:44:24;;;;;;;2.13;1.00;;;20.00;91.40;;;;;;5074465;28;20055;-82
2022/09/10 12:47:16;;;;;;;2.08;0.90;;;19.90;91.30;;;;;;5058043;28;20469;-79
2022/09/10 12:49:56;;;;;;;2.08;1.00;;;19.70;91.40;;;;;;5058747;28;20048;-81
2022/09/10 12:52:41;;;;;;;1.92;1.33;;;19.70;91.60;;;;;;5067507;28;20056;-81
2022/09/10 12:55:39;;;;;;;1.25;0.88;;;19.80;91.50;;;;;;5066635;28;20044;-83
2022/09/10 12:58:21;;;;;;;1.55;0.80;;;20.00;91.40;;;;;;5050060;28;20048;-80
2022/09/10 13:00:54;;;;;;;1.73;1.10;;;20.10;91.20;;;;;;5062578;28;20459;-80
2022/09/10 13:03:25;;;;;;;1.98;1.35;;;20.10;91.20;;;;;;5077565;28;20048;-84
2022/09/10 13:06:08;;;;;;;2.00;1.33;;;20.00;91.10;;;;;;5059842;28;20488;-85
2022/09/10 13:09:00;;;;;;;3.10;1.70;;;19.90;91.10;;;;;;5052634;28;20044;-85
2022/09/10 13:11:31;;;;;;;;;;;19.90;91.20;;;;;;5057253;28;20504;-83
2022/09/10 13:14:05;;;;;;;2.80;1.70;;;19.80;91.30;;;;;;5062052;28;20008;-85
2022/09/10 13:16:32;;;;;;;2.42;1.70;;;19.70;91.40;;;;;;5058289;28;20164;-77
2022/09/10 13:19:16;;;;;;;2.33;1.40;;;19.70;91.40;;;;;;5041046;28;20041;-79
2022/09/10 13:21:43;;;;;;;1.20;0.80;;;19.80;91.20;;;;;;5040593;28;20419;-78
2022/09/10 13:24:33;;;;;;;2.33;1.05;;;19.80;91.40;;;;;;5088587;28;20063;-80
2022/09/10 13:27:14;;;;;;;2.60;1.42;;;19.80;91.10;;;;;;5057442;28;20409;-81